sensor_id;sensor_type;location;lat;lon;timestamp;P1;durP1;ratioP1;P2;durP2;ratioP2
9720;SDS011;4899;42.644;23.366;2023-11-21T00:00:20;8.93;;;6.03;;
9720;SDS011;4899;42.644;23.366;2023-11-21T00:02:45;6.73;;;4.67;;
9720;SDS011;4899;42.644;23.366;2023-11-21T00:05:11;4.60;;;4.17;;
9720;SDS011;4899;42.644;23.366;2023-11-21T00:07:39;6.50;;;4.60;;
9720;SDS011;4899;42.644;23.366;2023-11-21T00:10:04;7.33;;;5.40;;
9720;SDS011;4899;42.644;23.366;2023-11-21T00:12:50;9.57;;;5.93;;
9720;SDS011;4899;42.644;23.366;2023-11-21T00:15:15;6.23;;;5.03;;
9720;SDS011;4899;42.644;23.366;2023-11-21T00:17:40;7.70;;;5.70;;
9720;SDS011;4899;42.644;23.366;2023-11-21T00:20:06;7.10;;;6.10;;
9720;SDS011;4899;42.644;23.366;2023-11-21T00:22:32;7.27;;;6.27;;
9720;SDS011;4899;42.644;23.366;2023-11-21T00:24:57;7.43;;;5.27;;
9720;SDS011;4899;42.644;23.366;2023-11-21T00:27:23;6.10;;;5.50;;
9720;SDS011;4899;42.644;23.366;2023-11-21T00:29:48;5.63;;;5.00;;
9720;SDS011;4899;42.644;23.366;2023-11-21T00:32:13;6.77;;;5.50;;
9720;SDS011;4899;42.644;23.366;2023-11-21T00:34:39;7.17;;;5.00;;
9720;SDS011;4899;42.644;23.366;2023-11-21T00:37:05;6.03;;;4.63;;
9720;SDS011;4899;42.644;23.366;2023-11-21T00:39:30;6.10;;;4.80;;
9720;SDS011;4899;42.644;23.366;2023-11-21T00:41:55;5.57;;;4.37;;
9720;SDS011;4899;42.644;23.366;2023-11-21T00:44:20;6.93;;;4.83;;
9720;SDS011;4899;42.644;23.366;2023-11-21T00:46:46;9.67;;;6.43;;
9720;SDS011;4899;42.644;23.366;2023-11-21T00:49:11;9.03;;;6.67;;
9720;SDS011;4899;42.644;23.366;2023-11-21T00:51:36;16.27;;;8.63;;
9720;SDS011;4899;42.644;23.366;2023-11-21T00:54:02;11.23;;;8.23;;
9720;SDS011;4899;42.644;23.366;2023-11-21T00:56:27;11.83;;;7.80;;
9720;SDS011;4899;42.644;23.366;2023-11-21T00:58:53;12.73;;;8.03;;
9720;SDS011;4899;42.644;23.366;2023-11-21T01:01:18;10.00;;;7.47;;
9720;SDS011;4899;42.644;23.366;2023-11-21T01:03:47;7.93;;;6.37;;
9720;SDS011;4899;42.644;23.366;2023-11-21T01:06:12;11.63;;;7.83;;
9720;SDS011;4899;42.644;23.366;2023-11-21T01:08:37;11.13;;;8.30;;
9720;SDS011;4899;42.644;23.366;2023-11-21T01:11:03;10.57;;;6.57;;
9720;SDS011;4899;42.644;23.366;2023-11-21T01:13:28;13.37;;;8.17;;
9720;SDS011;4899;42.644;23.366;2023-11-21T01:15:54;11.17;;;7.47;;
9720;SDS011;4899;42.644;23.366;2023-11-21T01:18:20;11.03;;;6.60;;
9720;SDS011;4899;42.644;23.366;2023-11-21T01:20:45;15.70;;;9.60;;
9720;SDS011;4899;42.644;23.366;2023-11-21T01:23:12;13.43;;;9.47;;
9720;SDS011;4899;42.644;23.366;2023-11-21T01:25:37;10.67;;;8.97;;
9720;SDS011;4899;42.644;23.366;2023-11-21T01:28:03;14.40;;;9.40;;
9720;SDS011;4899;42.644;23.366;2023-11-21T01:30:28;13.20;;;9.20;;
9720;SDS011;4899;42.644;23.366;2023-11-21T01:32:53;14.37;;;9.53;;
9720;SDS011;4899;42.644;23.366;2023-11-21T01:35:19;11.60;;;9.27;;
9720;SDS011;4899;42.644;23.366;2023-11-21T01:37:44;15.83;;;11.33;;
9720;SDS011;4899;42.644;23.366;2023-11-21T01:40:09;14.67;;;11.10;;
9720;SDS011;4899;42.644;23.366;2023-11-21T01:42:38;11.47;;;10.20;;
9720;SDS011;4899;42.644;23.366;2023-11-21T01:45:04;14.87;;;12.03;;
9720;SDS011;4899;42.644;23.366;2023-11-21T01:47:30;11.67;;;9.20;;
9720;SDS011;4899;42.644;23.366;2023-11-21T01:49:56;15.50;;;10.73;;
9720;SDS011;4899;42.644;23.366;2023-11-21T01:52:21;13.40;;;10.83;;
9720;SDS011;4899;42.644;23.366;2023-11-21T01:54:46;15.03;;;9.43;;
9720;SDS011;4899;42.644;23.366;2023-11-21T01:57:12;13.97;;;10.03;;
9720;SDS011;4899;42.644;23.366;2023-11-21T01:59:38;17.33;;;11.33;;
9720;SDS011;4899;42.644;23.366;2023-11-21T02:02:07;16.97;;;11.00;;
9720;SDS011;4899;42.644;23.366;2023-11-21T02:04:32;12.60;;;10.07;;
9720;SDS011;4899;42.644;23.366;2023-11-21T02:06:58;13.13;;;9.40;;
9720;SDS011;4899;42.644;23.366;2023-11-21T02:09:24;12.20;;;9.50;;
9720;SDS011;4899;42.644;23.366;2023-11-21T02:11:50;14.03;;;9.27;;
9720;SDS011;4899;42.644;23.366;2023-11-21T02:14:16;13.70;;;9.20;;
9720;SDS011;4899;42.644;23.366;2023-11-21T02:16:43;12.03;;;8.10;;
9720;SDS011;4899;42.644;23.366;2023-11-21T02:19:12;13.63;;;10.37;;
9720;SDS011;4899;42.644;23.366;2023-11-21T02:21:41;14.87;;;10.13;;
9720;SDS011;4899;42.644;23.366;2023-11-21T02:24:07;12.90;;;9.57;;
9720;SDS011;4899;42.644;23.366;2023-11-21T02:26:32;15.03;;;10.10;;
9720;SDS011;4899;42.644;23.366;2023-11-21T02:28:58;13.83;;;9.67;;
9720;SDS011;4899;42.644;23.366;2023-11-21T02:31:23;17.33;;;11.80;;
9720;SDS011;4899;42.644;23.366;2023-11-21T02:33:48;16.47;;;11.17;;
9720;SDS011;4899;42.644;23.366;2023-11-21T02:36:14;13.13;;;10.60;;
9720;SDS011;4899;42.644;23.366;2023-11-21T02:38:39;16.87;;;11.47;;
9720;SDS011;4899;42.644;23.366;2023-11-21T02:41:05;13.93;;;9.70;;
9720;SDS011;4899;42.644;23.366;2023-11-21T02:43:30;16.73;;;10.90;;
9720;SDS011;4899;42.644;23.366;2023-11-21T02:45:55;13.60;;;10.13;;
9720;SDS011;4899;42.644;23.366;2023-11-21T02:48:21;15.57;;;10.60;;
9720;SDS011;4899;42.644;23.366;2023-11-21T02:50:49;20.30;;;11.87;;
9720;SDS011;4899;42.644;23.366;2023-11-21T02:53:14;14.33;;;11.40;;
9720;SDS011;4899;42.644;23.366;2023-11-21T02:55:39;19.10;;;12.60;;
9720;SDS011;4899;42.644;23.366;2023-11-21T02:58:05;15.10;;;11.13;;
9720;SDS011;4899;42.644;23.366;2023-11-21T03:00:31;16.63;;;11.30;;
9720;SDS011;4899;42.644;23.366;2023-11-21T03:02:56;15.53;;;11.00;;
9720;SDS011;4899;42.644;23.366;2023-11-21T03:05:21;13.63;;;10.93;;
9720;SDS011;4899;42.644;23.366;2023-11-21T03:07:47;17.00;;;11.97;;
9720;SDS011;4899;42.644;23.366;2023-11-21T03:10:12;17.07;;;11.10;;
9720;SDS011;4899;42.644;23.366;2023-11-21T03:12:38;19.17;;;11.63;;
9720;SDS011;4899;42.644;23.366;2023-11-21T03:15:04;18.43;;;11.93;;
9720;SDS011;4899;42.644;23.366;2023-11-21T03:17:31;14.83;;;10.20;;
9720;SDS011;4899;42.644;23.366;2023-11-21T03:19:56;18.10;;;12.50;;
9720;SDS011;4899;42.644;23.366;2023-11-21T03:22:22;12.57;;;10.53;;
9720;SDS011;4899;42.644;23.366;2023-11-21T03:24:47;17.40;;;10.87;;
9720;SDS011;4899;42.644;23.366;2023-11-21T03:27:12;17.13;;;10.33;;
9720;SDS011;4899;42.644;23.366;2023-11-21T03:29:38;14.53;;;10.30;;
9720;SDS011;4899;42.644;23.366;2023-11-21T03:32:04;14.43;;;11.00;;
9720;SDS011;4899;42.644;23.366;2023-11-21T03:34:29;15.27;;;10.00;;
9720;SDS011;4899;42.644;23.366;2023-11-21T03:36:55;14.97;;;11.00;;
9720;SDS011;4899;42.644;23.366;2023-11-21T03:39:20;16.90;;;11.13;;
9720;SDS011;4899;42.644;23.366;2023-11-21T03:41:46;17.50;;;12.37;;
9720;SDS011;4899;42.644;23.366;2023-11-21T03:44:11;16.53;;;12.37;;
9720;SDS011;4899;42.644;23.366;2023-11-21T03:46:37;16.67;;;11.90;;
9720;SDS011;4899;42.644;23.366;2023-11-21T03:49:02;14.93;;;10.53;;
9720;SDS011;4899;42.644;23.366;2023-11-21T03:51:27;16.87;;;11.80;;
9720;SDS011;4899;42.644;23.366;2023-11-21T03:53:52;15.00;;;11.37;;
9720;SDS011;4899;42.644;23.366;2023-11-21T03:56:18;14.30;;;11.00;;
9720;SDS011;4899;42.644;23.366;2023-11-21T03:58:45;20.83;;;11.27;;
9720;SDS011;4899;42.644;23.366;2023-11-21T04:01:11;12.67;;;10.70;;
9720;SDS011;4899;42.644;23.366;2023-11-21T04:03:36;9.83;;;7.67;;
9720;SDS011;4899;42.644;23.366;2023-11-21T04:06:01;9.23;;;7.10;;
9720;SDS011;4899;42.644;23.366;2023-11-21T04:08:26;9.67;;;6.70;;
9720;SDS011;4899;42.644;23.366;2023-11-21T04:10:52;9.60;;;7.70;;
9720;SDS011;4899;42.644;23.366;2023-11-21T04:13:18;11.00;;;7.80;;
9720;SDS011;4899;42.644;23.366;2023-11-21T04:15:44;8.50;;;7.47;;
9720;SDS011;4899;42.644;23.366;2023-11-21T04:18:09;9.43;;;7.87;;
9720;SDS011;4899;42.644;23.366;2023-11-21T04:20:34;14.63;;;10.77;;
9720;SDS011;4899;42.644;23.366;2023-11-21T04:22:59;11.80;;;10.00;;
9720;SDS011;4899;42.644;23.366;2023-11-21T04:25:25;12.23;;;9.90;;
9720;SDS011;4899;42.644;23.366;2023-11-21T04:27:50;11.70;;;9.03;;
9720;SDS011;4899;42.644;23.366;2023-11-21T04:30:15;10.73;;;8.97;;
9720;SDS011;4899;42.644;23.366;2023-11-21T04:32:41;13.30;;;9.70;;
9720;SDS011;4899;42.644;23.366;2023-11-21T04:35:09;10.57;;;7.50;;
9720;SDS011;4899;42.644;23.366;2023-11-21T04:37:34;8.53;;;6.37;;
9720;SDS011;4899;42.644;23.366;2023-11-21T04:40:00;7.80;;;6.50;;
9720;SDS011;4899;42.644;23.366;2023-11-21T04:42:25;9.50;;;7.03;;
9720;SDS011;4899;42.644;23.366;2023-11-21T04:44:51;10.23;;;6.83;;
9720;SDS011;4899;42.644;23.366;2023-11-21T04:47:17;12.27;;;8.90;;
9720;SDS011;4899;42.644;23.366;2023-11-21T04:49:45;12.37;;;9.10;;
9720;SDS011;4899;42.644;23.366;2023-11-21T04:52:12;16.03;;;12.60;;
9720;SDS011;4899;42.644;23.366;2023-11-21T04:54:37;9.00;;;7.00;;
9720;SDS011;4899;42.644;23.366;2023-11-21T04:57:02;11.93;;;7.03;;
9720;SDS011;4899;42.644;23.366;2023-11-21T04:59:30;9.60;;;7.20;;
9720;SDS011;4899;42.644;23.366;2023-11-21T05:01:55;9.33;;;7.47;;
9720;SDS011;4899;42.644;23.366;2023-11-21T05:04:20;8.03;;;7.23;;
9720;SDS011;4899;42.644;23.366;2023-11-21T05:06:47;13.40;;;10.67;;
9720;SDS011;4899;42.644;23.366;2023-11-21T05:09:12;12.27;;;9.40;;
9720;SDS011;4899;42.644;23.366;2023-11-21T05:11:38;8.33;;;6.67;;
9720;SDS011;4899;42.644;23.366;2023-11-21T05:14:04;7.23;;;5.50;;
9720;SDS011;4899;42.644;23.366;2023-11-21T05:16:30;10.90;;;5.70;;
9720;SDS011;4899;42.644;23.366;2023-11-21T05:18:56;10.60;;;6.20;;
9720;SDS011;4899;42.644;23.366;2023-11-21T05:21:26;7.07;;;5.50;;
9720;SDS011;4899;42.644;23.366;2023-11-21T05:23:51;10.57;;;9.00;;
9720;SDS011;4899;42.644;23.366;2023-11-21T05:26:16;8.30;;;6.57;;
9720;SDS011;4899;42.644;23.366;2023-11-21T05:28:41;4.70;;;4.23;;
9720;SDS011;4899;42.644;23.366;2023-11-21T05:31:07;4.97;;;4.23;;
9720;SDS011;4899;42.644;23.366;2023-11-21T05:33:32;4.23;;;3.83;;
9720;SDS011;4899;42.644;23.366;2023-11-21T05:35:58;6.60;;;4.67;;
9720;SDS011;4899;42.644;23.366;2023-11-21T05:38:23;5.87;;;4.20;;
9720;SDS011;4899;42.644;23.366;2023-11-21T05:40:49;6.83;;;4.77;;
9720;SDS011;4899;42.644;23.366;2023-11-21T05:43:14;6.47;;;5.00;;
9720;SDS011;4899;42.644;23.366;2023-11-21T05:45:40;11.00;;;7.50;;
9720;SDS011;4899;42.644;23.366;2023-11-21T05:48:05;11.97;;;7.80;;
9720;SDS011;4899;42.644;23.366;2023-11-21T05:50:31;7.73;;;5.60;;
9720;SDS011;4899;42.644;23.366;2023-11-21T05:52:57;5.73;;;4.87;;
9720;SDS011;4899;42.644;23.366;2023-11-21T05:55:24;6.20;;;5.40;;
9720;SDS011;4899;42.644;23.366;2023-11-21T05:57:50;9.97;;;7.20;;
9720;SDS011;4899;42.644;23.366;2023-11-21T06:00:16;8.47;;;6.20;;
9720;SDS011;4899;42.644;23.366;2023-11-21T06:02:48;8.80;;;6.60;;
9720;SDS011;4899;42.644;23.366;2023-11-21T06:05:16;10.63;;;8.07;;
9720;SDS011;4899;42.644;23.366;2023-11-21T06:07:43;8.80;;;7.63;;
9720;SDS011;4899;42.644;23.366;2023-11-21T06:10:08;16.00;;;11.90;;
9720;SDS011;4899;42.644;23.366;2023-11-21T06:12:36;14.63;;;12.03;;
9720;SDS011;4899;42.644;23.366;2023-11-21T06:15:02;19.23;;;12.23;;
9720;SDS011;4899;42.644;23.366;2023-11-21T06:17:30;17.03;;;12.27;;
9720;SDS011;4899;42.644;23.366;2023-11-21T06:19:55;18.57;;;12.23;;
9720;SDS011;4899;42.644;23.366;2023-11-21T06:22:20;20.43;;;14.37;;
9720;SDS011;4899;42.644;23.366;2023-11-21T06:24:45;17.33;;;12.43;;
9720;SDS011;4899;42.644;23.366;2023-11-21T06:27:11;18.27;;;12.80;;
9720;SDS011;4899;42.644;23.366;2023-11-21T06:29:36;15.27;;;12.67;;
9720;SDS011;4899;42.644;23.366;2023-11-21T06:32:02;18.83;;;12.60;;
9720;SDS011;4899;42.644;23.366;2023-11-21T06:34:30;19.20;;;13.20;;
9720;SDS011;4899;42.644;23.366;2023-11-21T06:36:55;18.47;;;14.37;;
9720;SDS011;4899;42.644;23.366;2023-11-21T06:39:21;22.87;;;15.27;;
9720;SDS011;4899;42.644;23.366;2023-11-21T06:41:48;26.53;;;15.20;;
9720;SDS011;4899;42.644;23.366;2023-11-21T06:44:13;23.47;;;16.33;;
9720;SDS011;4899;42.644;23.366;2023-11-21T06:46:39;20.30;;;15.47;;
9720;SDS011;4899;42.644;23.366;2023-11-21T06:49:07;23.70;;;16.60;;
9720;SDS011;4899;42.644;23.366;2023-11-21T06:51:32;23.67;;;16.67;;
9720;SDS011;4899;42.644;23.366;2023-11-21T06:53:57;24.73;;;14.63;;
9720;SDS011;4899;42.644;23.366;2023-11-21T06:56:23;26.50;;;17.20;;
9720;SDS011;4899;42.644;23.366;2023-11-21T06:58:48;20.73;;;16.93;;
9720;SDS011;4899;42.644;23.366;2023-11-21T07:01:14;19.20;;;13.47;;
9720;SDS011;4899;42.644;23.366;2023-11-21T07:03:40;24.17;;;16.87;;
9720;SDS011;4899;42.644;23.366;2023-11-21T07:06:06;19.43;;;14.27;;
9720;SDS011;4899;42.644;23.366;2023-11-21T07:08:32;20.43;;;15.53;;
9720;SDS011;4899;42.644;23.366;2023-11-21T07:10:57;24.60;;;16.90;;
9720;SDS011;4899;42.644;23.366;2023-11-21T07:13:23;20.87;;;14.90;;
9720;SDS011;4899;42.644;23.366;2023-11-21T07:15:48;19.47;;;15.13;;
9720;SDS011;4899;42.644;23.366;2023-11-21T07:18:14;16.17;;;13.27;;
9720;SDS011;4899;42.644;23.366;2023-11-21T07:20:39;14.63;;;11.80;;
9720;SDS011;4899;42.644;23.366;2023-11-21T07:23:04;14.43;;;11.23;;
9720;SDS011;4899;42.644;23.366;2023-11-21T07:25:30;17.60;;;12.27;;
9720;SDS011;4899;42.644;23.366;2023-11-21T07:27:57;16.23;;;13.57;;
9720;SDS011;4899;42.644;23.366;2023-11-21T07:30:22;19.63;;;13.87;;
9720;SDS011;4899;42.644;23.366;2023-11-21T07:32:47;22.30;;;13.97;;
9720;SDS011;4899;42.644;23.366;2023-11-21T07:35:13;16.13;;;11.63;;
9720;SDS011;4899;42.644;23.366;2023-11-21T07:37:38;18.37;;;13.20;;
9720;SDS011;4899;42.644;23.366;2023-11-21T07:40:04;16.57;;;12.53;;
9720;SDS011;4899;42.644;23.366;2023-11-21T07:42:29;17.90;;;14.20;;
9720;SDS011;4899;42.644;23.366;2023-11-21T07:44:55;16.80;;;11.70;;
9720;SDS011;4899;42.644;23.366;2023-11-21T07:47:20;13.03;;;11.30;;
9720;SDS011;4899;42.644;23.366;2023-11-21T07:49:45;15.70;;;12.00;;
9720;SDS011;4899;42.644;23.366;2023-11-21T07:52:12;14.90;;;12.20;;
9720;SDS011;4899;42.644;23.366;2023-11-21T07:54:38;13.00;;;11.50;;
9720;SDS011;4899;42.644;23.366;2023-11-21T07:57:03;18.80;;;12.77;;
9720;SDS011;4899;42.644;23.366;2023-11-21T07:59:29;15.60;;;12.50;;
9720;SDS011;4899;42.644;23.366;2023-11-21T08:01:54;17.00;;;12.20;;
9720;SDS011;4899;42.644;23.366;2023-11-21T08:04:20;16.03;;;12.67;;
9720;SDS011;4899;42.644;23.366;2023-11-21T08:06:45;19.47;;;12.27;;
9720;SDS011;4899;42.644;23.366;2023-11-21T08:09:10;13.50;;;12.10;;
9720;SDS011;4899;42.644;23.366;2023-11-21T08:11:37;14.07;;;12.57;;
9720;SDS011;4899;42.644;23.366;2023-11-21T08:14:04;17.27;;;12.50;;
9720;SDS011;4899;42.644;23.366;2023-11-21T08:16:30;15.73;;;13.97;;
9720;SDS011;4899;42.644;23.366;2023-11-21T08:18:55;19.77;;;14.37;;
9720;SDS011;4899;42.644;23.366;2023-11-21T08:21:20;22.70;;;12.77;;
9720;SDS011;4899;42.644;23.366;2023-11-21T08:23:46;18.00;;;13.43;;
9720;SDS011;4899;42.644;23.366;2023-11-21T08:26:12;18.30;;;12.53;;
9720;SDS011;4899;42.644;23.366;2023-11-21T08:28:38;16.23;;;12.03;;
9720;SDS011;4899;42.644;23.366;2023-11-21T08:31:03;15.07;;;11.77;;
9720;SDS011;4899;42.644;23.366;2023-11-21T08:33:29;17.97;;;12.10;;
9720;SDS011;4899;42.644;23.366;2023-11-21T08:35:55;16.57;;;10.80;;
9720;SDS011;4899;42.644;23.366;2023-11-21T08:38:20;12.70;;;11.13;;
9720;SDS011;4899;42.644;23.366;2023-11-21T08:40:45;15.77;;;12.30;;
9720;SDS011;4899;42.644;23.366;2023-11-21T08:43:10;14.40;;;11.60;;
9720;SDS011;4899;42.644;23.366;2023-11-21T08:45:37;13.20;;;9.93;;
9720;SDS011;4899;42.644;23.366;2023-11-21T08:48:02;13.93;;;10.73;;
9720;SDS011;4899;42.644;23.366;2023-11-21T08:50:28;15.30;;;11.67;;
9720;SDS011;4899;42.644;23.366;2023-11-21T08:52:53;12.77;;;10.33;;
9720;SDS011;4899;42.644;23.366;2023-11-21T08:55:19;14.70;;;11.73;;
9720;SDS011;4899;42.644;23.366;2023-11-21T08:57:45;17.17;;;11.57;;
9720;SDS011;4899;42.644;23.366;2023-11-21T09:00:12;14.77;;;10.83;;
9720;SDS011;4899;42.644;23.366;2023-11-21T09:02:40;21.97;;;13.23;;
9720;SDS011;4899;42.644;23.366;2023-11-21T09:05:07;15.40;;;12.83;;
9720;SDS011;4899;42.644;23.366;2023-11-21T09:07:32;15.77;;;12.03;;
9720;SDS011;4899;42.644;23.366;2023-11-21T09:09:58;15.57;;;10.97;;
9720;SDS011;4899;42.644;23.366;2023-11-21T09:12:23;12.50;;;11.20;;
9720;SDS011;4899;42.644;23.366;2023-11-21T09:14:50;20.50;;;11.47;;
9720;SDS011;4899;42.644;23.366;2023-11-21T09:17:15;15.03;;;11.77;;
9720;SDS011;4899;42.644;23.366;2023-11-21T09:19:41;19.83;;;13.43;;
9720;SDS011;4899;42.644;23.366;2023-11-21T09:22:06;22.57;;;14.97;;
9720;SDS011;4899;42.644;23.366;2023-11-21T09:24:32;22.47;;;16.67;;
9720;SDS011;4899;42.644;23.366;2023-11-21T09:26:58;21.53;;;17.17;;
9720;SDS011;4899;42.644;23.366;2023-11-21T09:29:25;22.60;;;16.83;;
9720;SDS011;4899;42.644;23.366;2023-11-21T09:31:50;21.03;;;16.33;;
9720;SDS011;4899;42.644;23.366;2023-11-21T09:34:16;25.30;;;18.30;;
9720;SDS011;4899;42.644;23.366;2023-11-21T09:36:44;20.27;;;17.07;;
9720;SDS011;4899;42.644;23.366;2023-11-21T09:39:09;28.90;;;18.73;;
9720;SDS011;4899;42.644;23.366;2023-11-21T09:41:40;25.40;;;17.87;;
9720;SDS011;4899;42.644;23.366;2023-11-21T09:44:09;29.40;;;18.90;;
9720;SDS011;4899;42.644;23.366;2023-11-21T09:46:37;28.00;;;18.63;;
9720;SDS011;4899;42.644;23.366;2023-11-21T09:49:05;25.47;;;19.63;;
9720;SDS011;4899;42.644;23.366;2023-11-21T09:51:37;24.33;;;19.10;;
9720;SDS011;4899;42.644;23.366;2023-11-21T09:54:05;24.03;;;19.40;;
9720;SDS011;4899;42.644;23.366;2023-11-21T09:56:34;25.40;;;19.57;;
9720;SDS011;4899;42.644;23.366;2023-11-21T09:59:00;30.90;;;19.17;;
9720;SDS011;4899;42.644;23.366;2023-11-21T10:01:29;24.03;;;17.40;;
9720;SDS011;4899;42.644;23.366;2023-11-21T10:03:56;25.20;;;19.20;;
9720;SDS011;4899;42.644;23.366;2023-11-21T10:06:21;23.10;;;17.27;;
9720;SDS011;4899;42.644;23.366;2023-11-21T10:08:48;24.30;;;17.93;;
9720;SDS011;4899;42.644;23.366;2023-11-21T10:11:15;23.10;;;15.37;;
9720;SDS011;4899;42.644;23.366;2023-11-21T10:13:43;23.63;;;16.33;;
9720;SDS011;4899;42.644;23.366;2023-11-21T10:16:09;22.80;;;15.13;;
9720;SDS011;4899;42.644;23.366;2023-11-21T10:18:37;29.07;;;17.27;;
9720;SDS011;4899;42.644;23.366;2023-11-21T10:21:05;19.23;;;14.83;;
9720;SDS011;4899;42.644;23.366;2023-11-21T10:23:31;17.07;;;12.87;;
9720;SDS011;4899;42.644;23.366;2023-11-21T10:25:56;17.17;;;12.30;;
9720;SDS011;4899;42.644;23.366;2023-11-21T10:28:24;18.93;;;14.27;;
9720;SDS011;4899;42.644;23.366;2023-11-21T10:30:49;23.53;;;16.53;;
9720;SDS011;4899;42.644;23.366;2023-11-21T10:33:14;22.93;;;15.10;;
9720;SDS011;4899;42.644;23.366;2023-11-21T10:35:43;18.23;;;15.13;;
9720;SDS011;4899;42.644;23.366;2023-11-21T10:38:12;17.27;;;14.17;;
9720;SDS011;4899;42.644;23.366;2023-11-21T10:40:39;16.63;;;12.93;;
9720;SDS011;4899;42.644;23.366;2023-11-21T10:43:08;15.87;;;12.57;;
9720;SDS011;4899;42.644;23.366;2023-11-21T10:45:37;22.07;;;12.73;;
9720;SDS011;4899;42.644;23.366;2023-11-21T10:48:06;18.10;;;12.77;;
9720;SDS011;4899;42.644;23.366;2023-11-21T10:50:35;19.03;;;12.70;;
9720;SDS011;4899;42.644;23.366;2023-11-21T10:53:01;15.83;;;11.37;;
9720;SDS011;4899;42.644;23.366;2023-11-21T10:55:27;14.97;;;11.07;;
9720;SDS011;4899;42.644;23.366;2023-11-21T10:57:53;18.13;;;11.40;;
9720;SDS011;4899;42.644;23.366;2023-11-21T11:00:19;15.10;;;13.40;;
9720;SDS011;4899;42.644;23.366;2023-11-21T11:02:51;16.73;;;12.67;;
9720;SDS011;4899;42.644;23.366;2023-11-21T11:05:19;17.30;;;11.90;;
9720;SDS011;4899;42.644;23.366;2023-11-21T11:07:44;16.87;;;12.83;;
9720;SDS011;4899;42.644;23.366;2023-11-21T11:10:11;14.23;;;12.73;;
9720;SDS011;4899;42.644;23.366;2023-11-21T11:12:39;17.03;;;13.20;;
9720;SDS011;4899;42.644;23.366;2023-11-21T11:15:05;18.13;;;12.50;;
9720;SDS011;4899;42.644;23.366;2023-11-21T11:17:31;17.17;;;12.90;;
9720;SDS011;4899;42.644;23.366;2023-11-21T11:19:57;15.57;;;12.40;;
9720;SDS011;4899;42.644;23.366;2023-11-21T11:28:08;19.10;;;14.10;;
9720;SDS011;4899;42.644;23.366;2023-11-21T11:35:52;16.47;;;13.50;;
9720;SDS011;4899;42.644;23.366;2023-11-21T11:38:22;19.43;;;13.70;;
9720;SDS011;4899;42.644;23.366;2023-11-21T11:40:53;15.83;;;13.97;;
9720;SDS011;4899;42.644;23.366;2023-11-21T11:43:26;19.53;;;13.60;;
9720;SDS011;4899;42.644;23.366;2023-11-21T11:45:52;20.60;;;13.97;;
9720;SDS011;4899;42.644;23.366;2023-11-21T11:48:21;18.93;;;13.90;;
9720;SDS011;4899;42.644;23.366;2023-11-21T11:51:05;15.57;;;13.03;;
9720;SDS011;4899;42.644;23.366;2023-11-21T11:53:45;17.73;;;13.47;;
9720;SDS011;4899;42.644;23.366;2023-11-21T11:58:50;19.97;;;12.63;;
9720;SDS011;4899;42.644;23.366;2023-11-21T12:01:16;16.13;;;11.97;;
9720;SDS011;4899;42.644;23.366;2023-11-21T12:03:42;17.23;;;12.90;;
9720;SDS011;4899;42.644;23.366;2023-11-21T12:06:08;16.27;;;12.83;;
9720;SDS011;4899;42.644;23.366;2023-11-21T12:08:36;15.13;;;12.03;;
9720;SDS011;4899;42.644;23.366;2023-11-21T12:11:02;16.67;;;12.17;;
9720;SDS011;4899;42.644;23.366;2023-11-21T12:13:28;17.67;;;13.40;;
9720;SDS011;4899;42.644;23.366;2023-11-21T12:15:53;16.07;;;12.17;;
9720;SDS011;4899;42.644;23.366;2023-11-21T12:18:20;17.63;;;12.87;;
9720;SDS011;4899;42.644;23.366;2023-11-21T12:20:45;16.97;;;13.20;;
9720;SDS011;4899;42.644;23.366;2023-11-21T12:23:13;17.80;;;13.27;;
9720;SDS011;4899;42.644;23.366;2023-11-21T12:25:42;19.07;;;14.23;;
9720;SDS011;4899;42.644;23.366;2023-11-21T12:28:07;21.77;;;16.50;;
9720;SDS011;4899;42.644;23.366;2023-11-21T12:30:35;19.00;;;16.27;;
9720;SDS011;4899;42.644;23.366;2023-11-21T12:33:02;18.97;;;15.47;;
9720;SDS011;4899;42.644;23.366;2023-11-21T12:35:32;19.77;;;16.73;;
9720;SDS011;4899;42.644;23.366;2023-11-21T12:38:01;23.40;;;18.17;;
9720;SDS011;4899;42.644;23.366;2023-11-21T12:40:29;20.80;;;18.20;;
9720;SDS011;4899;42.644;23.366;2023-11-21T12:42:58;22.87;;;18.13;;
9720;SDS011;4899;42.644;23.366;2023-11-21T12:50:23;25.03;;;19.10;;
9720;SDS011;4899;42.644;23.366;2023-11-21T12:52:50;22.33;;;18.73;;
9720;SDS011;4899;42.644;23.366;2023-11-21T12:55:20;25.43;;;20.07;;
9720;SDS011;4899;42.644;23.366;2023-11-21T12:57:49;27.63;;;21.27;;
9720;SDS011;4899;42.644;23.366;2023-11-21T13:00:19;29.33;;;21.37;;
9720;SDS011;4899;42.644;23.366;2023-11-21T13:02:55;27.17;;;21.10;;
9720;SDS011;4899;42.644;23.366;2023-11-21T13:05:25;26.77;;;20.90;;
9720;SDS011;4899;42.644;23.366;2023-11-21T13:07:51;28.37;;;20.57;;
9720;SDS011;4899;42.644;23.366;2023-11-21T13:10:19;34.33;;;23.90;;
9720;SDS011;4899;42.644;23.366;2023-11-21T13:12:47;31.47;;;23.40;;
9720;SDS011;4899;42.644;23.366;2023-11-21T13:15:15;29.17;;;21.87;;
9720;SDS011;4899;42.644;23.366;2023-11-21T13:17:42;28.37;;;22.47;;
9720;SDS011;4899;42.644;23.366;2023-11-21T13:20:07;27.70;;;22.40;;
9720;SDS011;4899;42.644;23.366;2023-11-21T13:22:44;25.63;;;22.23;;
9720;SDS011;4899;42.644;23.366;2023-11-21T13:25:09;33.87;;;23.33;;
9720;SDS011;4899;42.644;23.366;2023-11-21T13:27:34;28.13;;;22.17;;
9720;SDS011;4899;42.644;23.366;2023-11-21T13:30:02;27.73;;;22.80;;
9720;SDS011;4899;42.644;23.366;2023-11-21T13:32:28;29.57;;;23.07;;
9720;SDS011;4899;42.644;23.366;2023-11-21T13:34:54;27.43;;;23.13;;
9720;SDS011;4899;42.644;23.366;2023-11-21T13:37:20;26.23;;;21.73;;
9720;SDS011;4899;42.644;23.366;2023-11-21T13:39:45;30.73;;;21.97;;
9720;SDS011;4899;42.644;23.366;2023-11-21T13:42:14;27.80;;;22.47;;
9720;SDS011;4899;42.644;23.366;2023-11-21T13:44:41;32.53;;;22.63;;
9720;SDS011;4899;42.644;23.366;2023-11-21T13:47:09;30.17;;;21.57;;
9720;SDS011;4899;42.644;23.366;2023-11-21T13:49:35;30.30;;;21.77;;
9720;SDS011;4899;42.644;23.366;2023-11-21T13:52:05;29.30;;;22.10;;
9720;SDS011;4899;42.644;23.366;2023-11-21T13:54:32;25.57;;;21.77;;
9720;SDS011;4899;42.644;23.366;2023-11-21T13:56:57;27.10;;;23.00;;
9720;SDS011;4899;42.644;23.366;2023-11-21T13:59:24;31.43;;;22.50;;
9720;SDS011;4899;42.644;23.366;2023-11-21T14:01:55;27.53;;;22.47;;
9720;SDS011;4899;42.644;23.366;2023-11-21T14:04:24;28.17;;;22.63;;
9720;SDS011;4899;42.644;23.366;2023-11-21T14:07:12;30.70;;;23.47;;
9720;SDS011;4899;42.644;23.366;2023-11-21T14:09:56;25.67;;;22.10;;
9720;SDS011;4899;42.644;23.366;2023-11-21T14:12:23;29.57;;;21.93;;
9720;SDS011;4899;42.644;23.366;2023-11-21T14:14:48;28.50;;;22.53;;
9720;SDS011;4899;42.644;23.366;2023-11-21T14:17:14;30.50;;;23.60;;
9720;SDS011;4899;42.644;23.366;2023-11-21T14:19:39;26.23;;;22.30;;
9720;SDS011;4899;42.644;23.366;2023-11-21T14:22:08;26.43;;;21.27;;
9720;SDS011;4899;42.644;23.366;2023-11-21T14:24:35;27.77;;;23.00;;
9720;SDS011;4899;42.644;23.366;2023-11-21T14:27:00;31.70;;;23.43;;
9720;SDS011;4899;42.644;23.366;2023-11-21T14:29:25;30.97;;;23.77;;
9720;SDS011;4899;42.644;23.366;2023-11-21T14:31:52;29.40;;;22.53;;
9720;SDS011;4899;42.644;23.366;2023-11-21T14:34:21;29.63;;;22.00;;
9720;SDS011;4899;42.644;23.366;2023-11-21T14:36:46;28.60;;;23.63;;
9720;SDS011;4899;42.644;23.366;2023-11-21T14:39:12;30.03;;;22.53;;
9720;SDS011;4899;42.644;23.366;2023-11-21T14:41:52;30.17;;;22.37;;
9720;SDS011;4899;42.644;23.366;2023-11-21T14:44:18;31.27;;;21.87;;
9720;SDS011;4899;42.644;23.366;2023-11-21T14:46:43;25.80;;;21.13;;
9720;SDS011;4899;42.644;23.366;2023-11-21T14:49:14;26.67;;;21.53;;
9720;SDS011;4899;42.644;23.366;2023-11-21T14:51:53;28.70;;;22.13;;
9720;SDS011;4899;42.644;23.366;2023-11-21T14:54:28;30.27;;;20.63;;